createdAt,value
2018-04-02T00:00:37.511Z,1008.85
2018-04-02T00:02:33.468Z,1008.82
2018-04-02T00:03:33.463Z,1008.82
2018-04-02T00:05:28.408Z,1008.83
2018-04-02T00:06:27.896Z,1008.76
2018-04-02T00:08:22.829Z,1008.74
2018-04-02T00:09:21.313Z,1008.72
2018-04-02T00:11:15.271Z,1008.71
2018-04-02T00:12:15.272Z,1008.74
2018-04-02T00:14:08.707Z,1008.72
2018-04-02T00:15:08.192Z,1008.72
2018-04-02T00:17:02.605Z,1008.68
2018-04-02T00:18:02.607Z,1008.65
2018-04-02T00:19:58.051Z,1008.67
2018-04-02T00:20:57.042Z,1008.66
2018-04-02T00:22:53.492Z,1008.67
2018-04-02T00:23:52.969Z,1008.65
2018-04-02T00:25:48.415Z,1008.65
2018-04-02T00:26:47.396Z,1008.61
2018-04-02T00:28:40.800Z,1008.61
2018-04-02T00:29:40.792Z,1008.59
2018-04-02T00:31:35.212Z,1008.57
2018-04-02T00:32:35.239Z,1008.58
2018-04-02T00:34:30.670Z,1008.56
2018-04-02T00:35:28.662Z,1008.58
2018-04-02T00:37:24.618Z,1008.57
2018-04-02T00:38:24.588Z,1008.55
2018-04-02T00:40:20.540Z,1008.53
2018-04-02T00:41:20.520Z,1008.52
2018-04-02T00:43:17.468Z,1008.50
2018-04-02T00:44:16.452Z,1008.50
2018-04-02T00:46:12.427Z,1008.48
2018-04-02T00:47:12.401Z,1008.50
2018-04-02T00:49:06.796Z,1008.49
2018-04-02T00:50:06.798Z,1008.46
2018-04-02T00:52:01.232Z,1008.47
2018-04-02T00:53:01.210Z,1008.48
2018-04-02T00:54:54.655Z,1008.45
2018-04-02T00:55:54.651Z,1008.45
2018-04-02T00:57:49.096Z,1008.39
2018-04-02T00:58:49.603Z,1008.40
2018-04-02T01:00:45.015Z,1008.37
2018-04-02T01:01:45.526Z,1008.34
2018-04-02T01:03:40.962Z,1008.35
2018-04-02T01:04:40.930Z,1008.32
2018-04-02T01:06:35.903Z,1008.28
2018-04-02T01:07:35.900Z,1008.26
2018-04-02T01:09:29.827Z,1008.26
2018-04-02T01:10:29.785Z,1008.23
2018-04-02T01:12:24.235Z,1008.25
2018-04-02T01:13:24.219Z,1008.28
2018-04-02T01:15:22.177Z,1008.26
2018-04-02T01:16:20.194Z,1008.23
2018-04-02T01:18:19.137Z,1008.22
2018-04-02T01:19:18.107Z,1008.21
2018-04-02T01:21:12.529Z,1008.15
2018-04-02T01:22:12.527Z,1008.11
2018-04-02T01:24:06.986Z,1008.07
2018-04-02T01:25:06.970Z,1008.09
2018-04-02T01:27:01.393Z,1008.07
2018-04-02T01:28:01.367Z,1008.10
2018-04-02T01:29:56.330Z,1008.05
2018-04-02T01:30:55.786Z,1008.01
2018-04-02T01:32:52.261Z,1008.02
2018-04-02T01:33:51.737Z,1008.02
2018-04-02T01:35:46.230Z,1008.03
2018-04-02T01:36:46.163Z,1008.07
2018-04-02T01:38:41.117Z,1008.02
2018-04-02T01:39:40.556Z,1008.02
2018-04-02T01:41:35.014Z,1008.00
2018-04-02T01:42:35.499Z,1008.02
2018-04-02T01:44:29.437Z,1007.99
2018-04-02T01:45:29.941Z,1007.98
2018-04-02T01:47:25.415Z,1007.98
2018-04-02T01:48:25.347Z,1007.99
2018-04-02T01:50:19.279Z,1007.98
2018-04-02T01:51:19.716Z,1007.98
2018-04-02T01:53:14.728Z,1007.93
2018-04-02T01:54:14.696Z,1007.93
2018-04-02T01:56:10.653Z,1007.88
2018-04-02T01:57:09.136Z,1007.86
2018-04-02T01:59:04.082Z,1007.86
2018-04-02T02:00:03.540Z,1007.92
2018-04-02T02:01:57.979Z,1007.85
2018-04-02T02:02:57.984Z,1007.85
2018-04-02T02:04:52.371Z,1007.79
2018-04-02T02:05:52.384Z,1007.75
2018-04-02T02:07:46.823Z,1007.74
2018-04-02T02:08:46.814Z,1007.74
2018-04-02T02:10:40.223Z,1007.69
2018-04-02T02:11:40.232Z,1007.67
2018-04-02T02:13:34.673Z,1007.68
2018-04-02T02:14:34.650Z,1007.64
2018-04-02T02:16:29.609Z,1007.59
2018-04-02T02:17:29.093Z,1007.59
2018-04-02T02:19:25.067Z,1007.54
2018-04-02T02:20:24.988Z,1007.60
2018-04-02T02:22:21.939Z,1007.57
2018-04-02T02:23:21.440Z,1007.55
2018-04-02T02:25:15.878Z,1007.53
2018-04-02T02:26:15.350Z,1007.52
2018-04-02T02:28:11.295Z,1007.52
2018-04-02T02:29:11.286Z,1007.51
2018-04-02T02:31:05.752Z,1007.51
2018-04-02T02:32:05.726Z,1007.54
2018-04-02T02:34:01.170Z,1007.51
2018-04-02T02:35:00.199Z,1007.54
2018-04-02T02:36:57.117Z,1007.56
2018-04-02T02:37:56.115Z,1007.55
2018-04-02T02:39:51.065Z,1007.51
2018-04-02T02:40:50.548Z,1007.56
2018-04-02T02:42:44.504Z,1007.47
2018-04-02T02:43:44.494Z,1007.49
2018-04-02T02:45:39.918Z,1007.45
2018-04-02T02:46:39.883Z,1007.41
2018-04-02T02:48:37.826Z,1007.43
2018-04-02T02:49:35.790Z,1007.46
2018-04-02T02:51:31.710Z,1007.49
2018-04-02T02:52:31.715Z,1007.51
2018-04-02T02:54:26.658Z,1007.50
2018-04-02T02:55:26.135Z,1007.48
2018-04-02T02:57:20.595Z,1007.39
2018-04-02T02:58:20.580Z,1007.34
2018-04-02T03:00:16.516Z,1007.30
2018-04-02T03:01:17.078Z,1007.33
2018-04-02T03:03:10.952Z,1007.29
2018-04-02T03:04:11.452Z,1007.31
2018-04-02T03:06:07.895Z,1007.29
2018-04-02T03:07:06.860Z,1007.30
2018-04-02T03:09:01.806Z,1007.33
2018-04-02T03:10:01.264Z,1007.33
2018-04-02T03:11:54.690Z,1007.29
2018-04-02T03:12:54.682Z,1007.28
2018-04-02T03:14:50.610Z,1007.26
2018-04-02T03:15:51.127Z,1007.25
2018-04-02T03:17:45.551Z,1007.22
2018-04-02T03:18:45.568Z,1007.22
2018-04-02T03:20:41.016Z,1007.28
2018-04-02T03:21:40.978Z,1007.25
2018-04-02T03:23:35.440Z,1007.23
2018-04-02T03:24:35.418Z,1007.26
2018-04-02T03:26:29.874Z,1007.25
2018-04-02T03:27:29.864Z,1007.24
2018-04-02T03:29:24.269Z,1007.19
2018-04-02T03:30:24.251Z,1007.17
2018-04-02T03:32:20.224Z,1007.09
2018-04-02T03:33:20.175Z,1007.09
2018-04-02T03:35:15.132Z,1007.05
2018-04-02T03:36:14.602Z,1007.09
2018-04-02T03:38:09.072Z,1007.03
2018-04-02T03:39:08.025Z,1007.04
2018-04-02T03:41:03.973Z,1007.00
2018-04-02T03:42:03.959Z,1007.05
2018-04-02T03:43:59.905Z,1007.00
2018-04-02T03:44:59.881Z,1006.98
2018-04-02T03:46:54.318Z,1006.99
2018-04-02T03:47:54.823Z,1006.95
2018-04-02T03:49:50.226Z,1006.90
2018-04-02T03:50:50.759Z,1006.92
2018-04-02T03:52:43.696Z,1006.89
2018-04-02T03:53:43.669Z,1006.89
2018-04-02T03:55:38.607Z,1006.89
2018-04-02T03:56:38.088Z,1006.87
2018-04-02T03:58:32.480Z,1006.86
2018-04-02T03:59:32.469Z,1006.84
2018-04-02T04:01:28.409Z,1006.83
2018-04-02T04:02:28.398Z,1006.81
2018-04-02T04:04:24.280Z,1006.81
2018-04-02T04:05:22.818Z,1006.80
2018-04-02T04:07:18.780Z,1006.84
2018-04-02T04:08:18.751Z,1006.82
2018-04-02T04:10:15.213Z,1006.81
2018-04-02T04:11:14.703Z,1006.79
2018-04-02T04:13:09.162Z,1006.77
2018-04-02T04:14:09.125Z,1006.77
2018-04-02T04:16:03.554Z,1006.76
2018-04-02T04:17:04.080Z,1006.73
2018-04-02T04:18:59.521Z,1006.72
2018-04-02T04:20:00.007Z,1006.74
2018-04-02T04:21:53.930Z,1006.71
2018-04-02T04:22:53.905Z,1006.73
2018-04-02T04:24:49.865Z,1006.68
2018-04-02T04:25:50.345Z,1006.70
2018-04-02T04:27:59.295Z,1006.64
2018-04-02T04:28:58.270Z,1006.67
2018-04-02T04:30:54.235Z,1006.60
2018-04-02T04:31:54.728Z,1006.64
2018-04-02T04:33:53.136Z,1006.62
2018-04-02T04:34:52.633Z,1006.61
2018-04-02T04:36:46.585Z,1006.70
2018-04-02T04:37:47.069Z,1006.64
2018-04-02T04:39:44.006Z,1006.67
2018-04-02T04:40:42.998Z,1006.67
2018-04-02T04:42:37.442Z,1006.62
2018-04-02T04:43:37.424Z,1006.62
2018-04-02T04:45:31.851Z,1006.60
2018-04-02T04:46:31.854Z,1006.63
2018-04-02T04:48:48.280Z,1006.55
2018-04-02T04:49:48.283Z,1006.60
2018-04-02T04:51:42.172Z,1006.55
2018-04-02T04:52:41.683Z,1006.53
2018-04-02T04:54:35.628Z,1006.55
2018-04-02T04:55:35.590Z,1006.50
2018-04-02T04:57:31.530Z,1006.57
2018-04-02T04:58:31.533Z,1006.54
2018-04-02T05:00:29.974Z,1006.52
2018-04-02T05:01:27.447Z,1006.47
2018-04-02T05:03:21.908Z,1006.43
2018-04-02T05:04:21.880Z,1006.46
2018-04-02T05:06:19.333Z,1006.45
2018-04-02T05:07:18.824Z,1006.44
2018-04-02T05:09:12.781Z,1006.43
2018-04-02T05:10:12.787Z,1006.41
2018-04-02T05:12:08.152Z,1006.46
2018-04-02T05:13:08.172Z,1006.44
2018-04-02T05:15:02.615Z,1006.46
2018-04-02T05:16:02.108Z,1006.46
2018-04-02T05:17:57.549Z,1006.43
2018-04-02T05:18:58.033Z,1006.44
2018-04-02T05:20:52.946Z,1006.44
2018-04-02T05:21:52.464Z,1006.43
2018-04-02T05:23:52.395Z,1006.41
2018-04-02T05:24:52.878Z,1006.45
2018-04-02T05:26:46.824Z,1006.45
2018-04-02T05:27:46.782Z,1006.49
2018-04-02T05:29:41.254Z,1006.44
2018-04-02T05:30:41.753Z,1006.45
2018-04-02T05:32:35.692Z,1006.45
2018-04-02T05:33:36.207Z,1006.41
2018-04-02T05:35:29.641Z,1006.42
2018-04-02T05:36:29.621Z,1006.38
2018-04-02T05:38:25.557Z,1006.41
2018-04-02T05:39:25.557Z,1006.41
2018-04-02T05:41:24.468Z,1006.39
2018-04-02T05:42:23.460Z,1006.36
2018-04-02T05:44:17.892Z,1006.35
2018-04-02T05:45:17.383Z,1006.35
2018-04-02T05:47:16.750Z,1006.33
2018-04-02T05:48:16.314Z,1006.28
2018-04-02T05:50:09.884Z,1006.34
2018-04-02T05:51:09.831Z,1006.31
2018-04-02T05:53:06.793Z,1006.31
2018-04-02T05:54:06.284Z,1006.25
2018-04-02T05:56:06.720Z,1006.27
2018-04-02T05:57:06.191Z,1006.32
2018-04-02T05:59:02.168Z,1006.23
2018-04-02T06:00:02.646Z,1006.27
2018-04-02T06:01:58.546Z,1006.19
2018-04-02T06:02:58.542Z,1006.15
2018-04-02T06:04:52.966Z,1006.14
2018-04-02T06:05:52.968Z,1006.13
2018-04-02T06:07:48.418Z,1006.13
2018-04-02T06:08:48.899Z,1006.08
2018-04-02T06:10:43.344Z,1006.12
2018-04-02T06:11:42.822Z,1006.10
2018-04-02T06:13:43.759Z,1006.11
2018-04-02T06:14:43.765Z,1006.10
2018-04-02T06:16:42.752Z,1006.07
2018-04-02T06:17:42.197Z,1006.06
2018-04-02T06:19:37.236Z,1006.05
2018-04-02T06:20:37.205Z,1006.05
2018-04-02T06:22:34.589Z,1006.01
2018-04-02T06:23:32.160Z,1006.01
2018-04-02T06:25:32.111Z,1006.04
2018-04-02T06:26:33.088Z,1006.00
2018-04-02T06:28:27.551Z,1006.04
2018-04-02T06:29:27.477Z,1006.01
2018-04-02T06:31:19.961Z,1006.07
2018-04-02T06:32:20.452Z,1006.12
2018-04-02T06:34:25.382Z,1006.10
2018-04-02T06:35:25.388Z,1006.07
2018-04-02T06:37:31.343Z,1006.10
2018-04-02T06:38:31.844Z,1006.13
2018-04-02T06:40:28.272Z,1006.10
2018-04-02T06:41:27.242Z,1006.10
2018-04-02T06:43:21.708Z,1006.10
2018-04-02T06:44:22.188Z,1006.09
2018-04-02T06:46:15.643Z,1006.06
2018-04-02T06:47:15.133Z,1006.06
2018-04-02T06:49:09.103Z,1006.02
2018-04-02T06:50:09.056Z,1006.01
2018-04-02T06:52:03.452Z,1005.91
2018-04-02T06:53:01.934Z,1005.88
2018-04-02T06:54:55.403Z,1005.90
2018-04-02T06:55:55.885Z,1005.85
2018-04-02T06:57:51.859Z,1005.90
2018-04-02T06:58:51.830Z,1005.89
2018-04-02T07:00:46.789Z,1005.91
2018-04-02T07:01:46.274Z,1005.90
2018-04-02T07:03:40.227Z,1005.87
2018-04-02T07:04:39.188Z,1005.88
2018-04-02T07:06:35.659Z,1005.85
2018-04-02T07:07:35.120Z,1005.83
2018-04-02T07:09:31.075Z,1005.84
2018-04-02T07:10:31.069Z,1005.85
2018-04-02T07:12:27.028Z,1005.80
2018-04-02T07:13:26.990Z,1005.78
2018-04-02T07:15:21.450Z,1005.83
2018-04-02T07:16:21.432Z,1005.80
2018-04-02T07:18:15.885Z,1005.78
2018-04-02T07:19:16.384Z,1005.82
2018-04-02T07:21:11.316Z,1005.76
2018-04-02T07:22:10.826Z,1005.77
2018-04-02T07:24:06.259Z,1005.72
2018-04-02T07:25:06.255Z,1005.71
2018-04-02T07:27:02.218Z,1005.67
2018-04-02T07:28:02.192Z,1005.67
2018-04-02T07:29:56.746Z,1005.71
2018-04-02T07:30:56.144Z,1005.71
2018-04-02T07:32:49.092Z,1005.68
2018-04-02T07:33:49.609Z,1005.67
2018-04-02T07:35:43.497Z,1005.65
2018-04-02T07:36:43.484Z,1005.61
2018-04-02T07:38:38.445Z,1005.57
2018-04-02T07:39:37.895Z,1005.62
2018-04-02T07:41:33.842Z,1005.56
2018-04-02T07:42:33.841Z,1005.55
2018-04-02T07:44:29.793Z,1005.52
2018-04-02T07:45:29.778Z,1005.48
2018-04-02T07:47:25.744Z,1005.49
2018-04-02T07:48:26.231Z,1005.51
2018-04-02T07:50:20.708Z,1005.54
2018-04-02T07:51:20.186Z,1005.54
2018-04-02T07:53:15.147Z,1005.52
2018-04-02T07:54:14.633Z,1005.53
2018-04-02T07:56:09.114Z,1005.53
2018-04-02T07:57:09.072Z,1005.48
2018-04-02T07:59:04.439Z,1005.52
2018-04-02T08:00:03.476Z,1005.51
2018-04-02T08:01:58.925Z,1005.51
2018-04-02T08:02:59.467Z,1005.48
2018-04-02T08:04:52.329Z,1005.49
2018-04-02T08:05:52.860Z,1005.51
2018-04-02T08:07:46.832Z,1005.53
2018-04-02T08:08:46.799Z,1005.54
2018-04-02T08:10:42.221Z,1005.53
2018-04-02T08:11:41.239Z,1005.58
2018-04-02T08:13:35.687Z,1005.52
2018-04-02T08:14:36.686Z,1005.56
2018-04-02T08:16:29.653Z,1005.51
2018-04-02T08:17:30.653Z,1005.55
2018-04-02T08:19:24.111Z,1005.51
2018-04-02T08:20:23.538Z,1005.53
2018-04-02T08:22:16.983Z,1005.43
2018-04-02T08:23:16.966Z,1005.41
2018-04-02T08:25:12.419Z,1005.40
2018-04-02T08:26:11.468Z,1005.44
2018-04-02T08:28:07.349Z,1005.40
2018-04-02T08:29:05.919Z,1005.35
2018-04-02T08:31:02.848Z,1005.41
2018-04-02T08:32:01.858Z,1005.36
2018-04-02T08:33:56.805Z,1005.32
2018-04-02T08:34:56.280Z,1005.32
2018-04-02T08:36:50.718Z,1005.26
2018-04-02T08:37:50.723Z,1005.27
2018-04-02T08:39:45.204Z,1005.22
2018-04-02T08:40:45.174Z,1005.20
2018-04-02T08:42:41.128Z,1005.21
2018-04-02T08:43:41.615Z,1005.17
2018-04-02T08:45:35.065Z,1005.23
2018-04-02T08:46:34.568Z,1005.21
2018-04-02T08:48:27.945Z,1005.15
2018-04-02T08:49:27.973Z,1005.17
2018-04-02T08:51:23.414Z,1005.17
2018-04-02T08:52:22.419Z,1005.16
2018-04-02T08:54:17.365Z,1005.11
2018-04-02T08:55:16.860Z,1005.12
2018-04-02T08:57:13.327Z,1005.10
2018-04-02T08:58:12.803Z,1005.08
2018-04-02T09:00:06.255Z,1005.11
2018-04-02T09:01:06.250Z,1005.12
2018-04-02T09:03:00.724Z,1005.05
2018-04-02T09:04:00.712Z,1005.10
2018-04-02T09:05:55.661Z,1005.11
2018-04-02T09:06:55.660Z,1005.08
2018-04-02T09:08:50.608Z,1005.07
2018-04-02T09:09:49.539Z,1005.06
2018-04-02T09:11:43.003Z,1005.00
2018-04-02T09:12:42.999Z,1004.99
2018-04-02T09:14:37.480Z,1005.03
2018-04-02T09:15:37.966Z,1004.95
2018-04-02T09:17:32.385Z,1004.94
2018-04-02T09:18:31.871Z,1004.89
2018-04-02T09:20:26.825Z,1004.87
2018-04-02T09:21:26.323Z,1004.84
2018-04-02T09:23:20.777Z,1004.88
2018-04-02T09:24:21.265Z,1004.79
2018-04-02T09:26:15.653Z,1004.81
2018-04-02T09:27:14.210Z,1004.79
2018-04-02T09:29:11.675Z,1004.79
2018-04-02T09:30:10.665Z,1004.75
2018-04-02T09:32:04.595Z,1004.72
2018-04-02T09:33:04.592Z,1004.70
2018-04-02T09:34:59.544Z,1004.62
2018-04-02T09:35:59.042Z,1004.62
2018-04-02T09:37:53.515Z,1004.59
2018-04-02T09:38:53.475Z,1004.59
2018-04-02T09:40:48.450Z,1004.47
2018-04-02T09:41:47.918Z,1004.49
2018-04-02T09:43:42.407Z,1004.36
2018-04-02T09:44:42.379Z,1004.38
2018-04-02T09:46:36.805Z,1004.31
2018-04-02T09:47:36.819Z,1004.30
2018-04-02T09:49:30.261Z,1004.29
2018-04-02T09:50:30.771Z,1004.23
2018-04-02T09:52:23.719Z,1004.21
2018-04-02T09:53:23.709Z,1004.21
2018-04-02T09:55:19.706Z,1004.20
2018-04-02T09:56:20.171Z,1004.19
2018-04-02T09:58:15.615Z,1004.16
2018-04-02T09:59:15.749Z,1004.15
2018-04-02T10:01:11.598Z,1004.10
2018-04-02T10:02:11.563Z,1004.11
2018-04-02T10:04:06.528Z,1004.08
2018-04-02T10:05:06.147Z,1004.10
2018-04-02T10:07:00.989Z,1004.07
2018-04-02T10:08:00.454Z,1004.04
2018-04-02T10:09:53.921Z,1004.04
2018-04-02T10:10:54.416Z,1004.03
2018-04-02T10:12:48.866Z,1003.96
2018-04-02T10:13:48.352Z,1003.94
2018-04-02T10:15:44.312Z,1003.94
2018-04-02T10:16:42.804Z,1003.90
2018-04-02T10:18:37.283Z,1003.81
2018-04-02T10:19:37.218Z,1003.83
2018-04-02T10:21:32.171Z,1003.83
2018-04-02T10:22:31.713Z,1003.81
2018-04-02T10:24:26.627Z,1003.80
2018-04-02T10:25:26.130Z,1003.75
2018-04-02T10:27:21.593Z,1003.79
2018-04-02T10:28:20.572Z,1003.76
2018-04-02T10:30:15.046Z,1003.73
2018-04-02T10:31:15.035Z,1003.75
2018-04-02T10:33:08.986Z,1003.72
2018-04-02T10:34:08.475Z,1003.69
2018-04-02T10:36:02.941Z,1003.67
2018-04-02T10:37:02.912Z,1003.58
2018-04-02T10:38:57.389Z,1003.55
2018-04-02T10:39:57.345Z,1003.54
2018-04-02T10:41:50.800Z,1003.43
2018-04-02T10:42:50.798Z,1003.43
2018-04-02T10:44:46.736Z,1003.36
2018-04-02T10:45:46.755Z,1003.34
2018-04-02T10:47:41.234Z,1003.33
2018-04-02T10:48:41.230Z,1003.36
2018-04-02T10:50:36.160Z,1003.37
2018-04-02T10:51:35.654Z,1003.27
2018-04-02T10:53:31.101Z,1003.30
2018-04-02T10:54:30.124Z,1003.26
2018-04-02T10:56:25.489Z,1003.27
2018-04-02T10:57:24.548Z,1003.18
2018-04-02T10:59:18.974Z,1003.16
2018-04-02T11:00:19.526Z,1003.13
2018-04-02T11:02:13.434Z,1003.15
2018-04-02T11:03:14.437Z,1003.11
2018-04-02T11:06:07.898Z,1003.05
2018-04-02T11:08:03.886Z,1003.04
2018-04-02T11:09:03.873Z,1003.06
2018-04-02T11:10:58.325Z,1003.12
2018-04-02T11:11:58.833Z,1003.08
2018-04-02T11:13:54.273Z,1003.06
2018-04-02T11:14:54.266Z,1003.01
2018-04-02T11:16:49.224Z,1002.97
2018-04-02T11:17:48.720Z,1002.95
2018-04-02T11:19:43.684Z,1002.90
2018-04-02T11:20:43.183Z,1002.97
2018-04-02T11:22:38.149Z,1002.96
2018-04-02T11:23:37.627Z,1002.88
2018-04-02T11:25:33.091Z,1002.84
2018-04-02T11:26:32.082Z,1002.85
2018-04-02T11:28:28.558Z,1002.82
2018-04-02T11:29:28.014Z,1002.79
2018-04-02T11:31:22.965Z,1002.73
2018-04-02T11:32:22.459Z,1002.73
2018-04-02T11:34:18.436Z,1002.75
2018-04-02T11:35:18.401Z,1002.68
2018-04-02T11:37:13.377Z,1002.63
2018-04-02T11:38:12.854Z,1002.66
2018-04-02T11:40:09.314Z,1002.68
2018-04-02T11:41:07.311Z,1002.67
2018-04-02T11:43:02.265Z,1002.64
2018-04-02T11:44:01.766Z,1002.57
2018-04-02T11:45:55.240Z,1002.57
2018-04-02T11:46:55.705Z,1002.57
2018-04-02T11:48:48.604Z,1002.52
2018-04-02T11:49:48.622Z,1002.59
2018-04-02T11:51:43.090Z,1002.58
2018-04-02T11:52:43.080Z,1002.53
2018-04-02T11:54:38.034Z,1002.51
2018-04-02T11:55:38.527Z,1002.52
2018-04-02T11:57:31.503Z,1002.52
2018-04-02T11:58:30.983Z,1002.46
2018-04-02T12:00:26.948Z,1002.46
2018-04-02T12:01:27.451Z,1002.45
2018-04-02T12:03:20.926Z,1002.41
2018-04-02T12:04:20.902Z,1002.38
2018-04-02T12:06:15.355Z,1002.30
2018-04-02T12:07:15.354Z,1002.27
2018-04-02T12:09:09.324Z,1002.27
2018-04-02T12:10:09.271Z,1002.28
2018-04-02T12:12:05.226Z,1002.26
2018-04-02T12:13:05.226Z,1002.26
2018-04-02T12:15:01.679Z,1002.23
2018-04-02T12:16:01.198Z,1002.20
2018-04-02T12:17:55.672Z,1002.16
2018-04-02T12:18:56.653Z,1002.16
2018-04-02T12:20:50.669Z,1002.15
2018-04-02T12:21:50.605Z,1002.17
2018-04-02T12:23:44.565Z,1002.08
2018-04-02T12:24:44.557Z,1002.08
2018-04-02T12:26:40.011Z,1002.04
2018-04-02T12:27:39.019Z,1001.97
2018-04-02T12:29:33.993Z,1001.88
2018-04-02T12:30:33.998Z,1001.88
2018-04-02T12:32:27.974Z,1001.83
2018-04-02T12:33:27.950Z,1001.77
2018-04-02T12:35:21.397Z,1001.82
2018-04-02T12:36:21.907Z,1001.79
2018-04-02T12:38:15.867Z,1001.74
2018-04-02T12:39:15.898Z,1001.67
2018-04-02T12:41:10.830Z,1001.65
2018-04-02T12:42:10.343Z,1001.69
2018-04-02T12:44:04.819Z,1001.61
2018-04-02T12:45:04.781Z,1001.60
2018-04-02T12:46:59.235Z,1001.57
2018-04-02T12:47:59.733Z,1001.52
2018-04-02T12:49:52.694Z,1001.48
2018-04-02T12:50:53.196Z,1001.50
2018-04-02T12:52:47.640Z,1001.53
2018-04-02T12:53:47.650Z,1001.43
2018-04-02T12:55:41.592Z,1001.42
2018-04-02T12:56:43.097Z,1001.45
2018-04-02T12:58:37.037Z,1001.36
2018-04-02T12:59:36.017Z,1001.35
2018-04-02T13:01:30.958Z,1001.31
2018-04-02T13:02:30.446Z,1001.31
2018-04-02T13:04:25.935Z,1001.26
2018-04-02T13:05:24.896Z,1001.30
2018-04-02T13:07:19.366Z,1001.24
2018-04-02T13:08:20.396Z,1001.20
2018-04-02T13:10:14.351Z,1001.15
2018-04-02T13:11:13.827Z,1001.18
2018-04-02T13:13:08.804Z,1001.16
2018-04-02T13:14:08.283Z,1001.11
2018-04-02T13:16:02.744Z,1001.01
2018-04-02T13:17:02.776Z,1001.04
2018-04-02T13:18:57.704Z,1000.97
2018-04-02T13:19:57.172Z,1000.94
2018-04-02T13:21:51.136Z,1000.82
2018-04-02T13:22:51.134Z,1000.85
2018-04-02T13:24:45.310Z,1000.86
2018-04-02T13:25:45.259Z,1000.87
2018-04-02T13:27:40.236Z,1000.77
2018-04-02T13:28:39.708Z,1000.74
2018-04-02T13:30:34.172Z,1000.70
2018-04-02T13:31:34.687Z,1000.72
2018-04-02T13:33:30.135Z,1000.66
2018-04-02T13:34:30.108Z,1000.67
2018-04-02T13:36:25.584Z,1000.63
2018-04-02T13:37:25.568Z,1000.64
2018-04-02T13:39:18.534Z,1000.68
2018-04-02T13:40:17.983Z,1000.62
2018-04-02T13:42:13.987Z,1000.63
2018-04-02T13:43:13.982Z,1000.60
2018-04-02T13:45:07.463Z,1000.55
2018-04-02T13:46:07.430Z,1000.53
2018-04-02T13:48:02.913Z,1000.44
2018-04-02T13:49:01.894Z,1000.42
2018-04-02T13:50:57.274Z,1000.40
2018-04-02T13:51:56.332Z,1000.36
2018-04-02T13:53:51.811Z,1000.32
2018-04-02T13:54:50.816Z,1000.28
2018-04-02T13:56:44.302Z,1000.28
2018-04-02T13:57:44.326Z,1000.29
2018-04-02T13:59:38.712Z,1000.26
2018-04-02T14:00:39.728Z,1000.23
2018-04-02T14:02:32.201Z,1000.16
2018-04-02T14:03:33.229Z,1000.08
2018-04-02T14:05:26.641Z,1000.09
2018-04-02T14:06:26.663Z,1000.05
2018-04-02T14:08:23.606Z,1000.07
2018-04-02T14:09:22.631Z,999.99
2018-04-02T14:11:17.093Z,1000.01
2018-04-02T14:12:17.089Z,1000.02
2018-04-02T14:14:12.047Z,1000.01
2018-04-02T14:15:11.542Z,999.95
2018-04-02T14:17:06.014Z,999.99
2018-04-02T14:18:05.988Z,999.92
2018-04-02T14:20:00.954Z,999.99
2018-04-02T14:21:00.447Z,999.96
2018-04-02T14:22:54.924Z,999.95
2018-04-02T14:23:54.911Z,999.83
2018-04-02T14:25:49.867Z,999.89
2018-04-02T14:26:49.389Z,999.87
2018-04-02T14:28:43.331Z,999.81
2018-04-02T14:29:42.792Z,999.75
2018-04-02T14:31:38.283Z,999.78
2018-04-02T14:32:37.774Z,999.74
2018-04-02T14:34:31.747Z,999.76
2018-04-02T14:35:31.728Z,999.73
2018-04-02T14:37:26.185Z,999.63
2018-04-02T14:38:26.146Z,999.62
2018-04-02T14:40:20.644Z,999.55
2018-04-02T14:41:20.609Z,999.49
2018-04-02T14:43:14.585Z,999.44
2018-04-02T14:44:14.068Z,999.40
2018-04-02T14:46:07.502Z,999.41
2018-04-02T14:47:08.022Z,999.36
2018-04-02T14:49:01.474Z,999.31
2018-04-02T14:50:01.473Z,999.29
2018-04-02T14:51:55.387Z,999.27
2018-04-02T14:52:55.376Z,999.20
2018-04-02T14:54:49.872Z,999.12
2018-04-02T14:55:50.332Z,999.13
2018-04-02T14:57:45.767Z,999.14
2018-04-02T14:58:46.317Z,999.16
2018-04-02T15:00:41.746Z,999.10
2018-04-02T15:01:41.737Z,999.14
2018-04-02T15:03:36.699Z,999.14
2018-04-02T15:04:35.692Z,999.06
2018-04-02T15:06:30.168Z,999.05
2018-04-02T15:07:29.639Z,998.98
2018-04-02T15:09:25.550Z,999.01
2018-04-02T15:10:25.557Z,999.03
2018-04-02T15:12:21.547Z,998.99
2018-04-02T15:13:21.527Z,998.93
2018-04-02T15:15:14.992Z,998.93
2018-04-02T15:16:14.981Z,998.86
2018-04-02T15:18:09.920Z,998.86
2018-04-02T15:19:09.415Z,998.88
2018-04-02T15:21:02.860Z,998.90
2018-04-02T15:22:03.378Z,998.85
2018-04-02T15:24:01.834Z,998.81
2018-04-02T15:25:02.250Z,998.82
2018-04-02T15:27:01.288Z,998.79
2018-04-02T15:28:01.287Z,998.78
2018-04-02T15:29:55.740Z,998.70
2018-04-02T15:30:56.713Z,998.61
2018-04-02T15:32:50.197Z,998.48
2018-04-02T15:33:50.701Z,998.41
2018-04-02T15:35:45.642Z,998.40
2018-04-02T15:36:44.145Z,998.37
2018-04-02T15:38:44.095Z,998.36
2018-04-02T15:39:44.605Z,998.37
2018-04-02T15:41:39.524Z,998.31
2018-04-02T15:42:38.495Z,998.29
2018-04-02T15:44:32.947Z,998.19
2018-04-02T15:45:33.469Z,998.20
2018-04-02T15:47:26.434Z,998.12
2018-04-02T15:48:26.911Z,998.12
2018-04-02T15:50:21.846Z,998.11
2018-04-02T15:51:21.353Z,998.10
2018-04-02T15:53:16.303Z,998.11
2018-04-02T15:54:17.229Z,998.15
2018-04-02T15:56:09.770Z,998.15
2018-04-02T15:57:10.265Z,998.13
2018-04-02T15:59:03.712Z,998.14
2018-04-02T16:00:03.162Z,998.19
2018-04-02T16:01:58.620Z,998.14
2018-04-02T16:02:58.627Z,998.10
2018-04-02T16:04:52.106Z,998.08
2018-04-02T16:05:52.580Z,998.04
2018-04-02T16:07:48.051Z,998.04
2018-04-02T16:08:48.522Z,998.01
2018-04-02T16:10:41.507Z,997.93
2018-04-02T16:11:41.993Z,997.90
2018-04-02T16:13:36.935Z,997.91
2018-04-02T16:14:36.431Z,997.85
2018-04-02T16:16:45.899Z,997.72
2018-04-02T16:17:45.393Z,997.73
2018-04-02T16:19:39.361Z,997.70
2018-04-02T16:20:39.364Z,997.63
2018-04-02T16:22:46.344Z,997.63
2018-04-02T16:25:02.303Z,997.64
2018-04-02T16:26:02.795Z,997.65
2018-04-02T16:27:55.740Z,997.62
2018-04-02T16:28:55.708Z,997.59
2018-04-02T16:30:49.680Z,997.55
2018-04-02T16:31:49.172Z,997.58
2018-04-02T16:33:44.147Z,997.54
2018-04-02T16:34:43.613Z,997.54
2018-04-02T16:36:37.565Z,997.54
2018-04-02T16:37:37.051Z,997.53
2018-04-02T16:39:34.503Z,997.49
2018-04-02T16:40:33.013Z,997.47
2018-04-02T16:42:27.470Z,997.45
2018-04-02T16:43:27.486Z,997.44
2018-04-02T16:45:21.946Z,997.40
2018-04-02T16:46:22.429Z,997.34
2018-04-02T16:48:28.893Z,997.28
2018-04-02T16:49:27.833Z,997.36
2018-04-02T16:51:22.306Z,997.26
2018-04-02T16:52:22.298Z,997.26
2018-04-02T16:54:17.774Z,997.18
2018-04-02T16:55:16.760Z,997.20
2018-04-02T16:57:11.200Z,997.24
2018-04-02T16:58:11.724Z,997.21
2018-04-02T17:00:04.685Z,997.16
2018-04-02T17:01:04.676Z,997.16
2018-04-02T17:02:59.136Z,997.17
2018-04-02T17:03:59.595Z,997.18
2018-04-02T17:05:52.578Z,997.17
2018-04-02T17:06:53.051Z,997.19
2018-04-02T17:08:47.995Z,997.30
2018-04-02T17:09:47.495Z,997.34
2018-04-02T17:13:15.549Z,997.34
2018-04-02T17:14:16.423Z,997.28
2018-04-02T17:16:09.022Z,997.28
2018-04-02T17:17:09.501Z,997.21
2018-04-02T17:19:05.371Z,997.20
2018-04-02T17:20:03.422Z,997.24
2018-04-02T17:22:03.362Z,997.29
2018-04-02T17:23:01.854Z,997.29
2018-04-02T17:24:59.312Z,997.31
2018-04-02T17:25:57.821Z,997.32
2018-04-02T17:27:53.271Z,997.34
2018-04-02T17:28:53.758Z,997.39
2018-04-02T17:30:47.682Z,997.45
2018-04-02T17:31:47.703Z,997.42
2018-04-02T17:33:44.669Z,997.34
2018-04-02T17:34:44.148Z,997.35
2018-04-02T17:36:38.148Z,997.39
2018-04-02T17:37:38.598Z,997.33
2018-04-02T17:39:34.025Z,997.33
2018-04-02T17:40:34.035Z,997.35
2018-04-02T17:42:28.500Z,997.26
2018-04-02T17:43:28.501Z,997.25
2018-04-02T17:45:26.408Z,997.26
2018-04-02T17:46:26.937Z,997.23
2018-04-02T17:48:22.372Z,997.21
2018-04-02T17:49:22.875Z,997.19